createdAt,value
2019-04-28T00:00:56.651Z,39.62
2019-04-28T00:01:56.602Z,39.62
2019-04-28T00:02:56.595Z,39.62
2019-04-28T00:03:56.593Z,39.62
2019-04-28T00:04:56.577Z,39.52
2019-04-28T00:05:56.588Z,39.52
2019-04-28T00:06:56.539Z,39.52
2019-04-28T00:07:56.530Z,39.52
2019-04-28T00:08:56.530Z,39.52
2019-04-28T00:09:56.510Z,39.52
2019-04-28T00:10:56.545Z,39.52
2019-04-28T00:11:56.496Z,39.52
2019-04-28T00:12:56.480Z,39.52
2019-04-28T00:13:56.466Z,39.52
2019-04-28T00:14:56.455Z,39.92
2019-04-28T00:15:56.455Z,39.62
2019-04-28T00:16:56.477Z,39.52
2019-04-28T00:17:56.417Z,39.42
2019-04-28T00:18:56.411Z,39.42
2019-04-28T00:19:56.405Z,39.32
2019-04-28T00:20:56.395Z,39.32
2019-04-28T00:21:56.434Z,39.32
2019-04-28T00:22:56.389Z,39.42
2019-04-28T00:23:56.375Z,39.42
2019-04-28T00:24:56.365Z,39.32
2019-04-28T00:25:56.349Z,39.32
2019-04-28T00:26:56.378Z,39.42
2019-04-28T00:27:56.333Z,39.32
2019-04-28T00:28:56.328Z,39.42
2019-04-28T00:29:56.299Z,39.42
2019-04-28T00:30:56.290Z,39.42
2019-04-28T00:31:56.330Z,39.32
2019-04-28T00:32:56.273Z,39.42
2019-04-28T00:33:56.253Z,39.32
2019-04-28T00:34:56.251Z,39.42
2019-04-28T00:35:56.240Z,39.32
2019-04-28T00:36:56.253Z,39.32
2019-04-28T00:37:56.239Z,39.32
2019-04-28T00:38:56.202Z,39.32
2019-04-28T00:39:56.195Z,39.32
2019-04-28T00:40:56.188Z,39.32
2019-04-28T00:41:56.213Z,39.32
2019-04-28T00:42:56.194Z,39.32
2019-04-28T00:43:56.147Z,39.32
2019-04-28T00:44:56.169Z,39.22
2019-04-28T00:45:56.122Z,39.32
2019-04-28T00:46:56.144Z,39.22
2019-04-28T00:47:56.124Z,39.22
2019-04-28T00:48:56.094Z,39.22
2019-04-28T00:49:56.082Z,39.22
2019-04-28T00:50:56.069Z,39.22
2019-04-28T00:51:56.082Z,39.22
2019-04-28T00:52:56.087Z,39.22
2019-04-28T00:53:56.054Z,39.22
2019-04-28T00:54:56.025Z,39.22
2019-04-28T00:55:56.021Z,39.22
2019-04-28T00:56:56.000Z,39.22
2019-04-28T00:57:56.040Z,39.22
2019-04-28T00:58:55.995Z,39.12
2019-04-28T00:59:58.703Z,39.12
2019-04-28T01:00:55.963Z,39.12
2019-04-28T01:01:55.964Z,39.12
2019-04-28T01:02:55.971Z,39.12
2019-04-28T01:03:55.929Z,39.12
2019-04-28T01:04:55.926Z,39.14
2019-04-28T01:05:55.919Z,39.14
2019-04-28T01:06:55.906Z,39.14
2019-04-28T01:07:55.907Z,39.12
2019-04-28T01:08:55.894Z,39.14
2019-04-28T01:09:55.876Z,39.14
2019-04-28T01:10:55.859Z,39.14
2019-04-28T01:11:55.842Z,39.14
2019-04-28T01:12:55.871Z,39.14
2019-04-28T01:13:55.818Z,39.14
2019-04-28T01:14:58.010Z,39.14
2019-04-28T01:15:55.800Z,39.14
2019-04-28T01:16:55.786Z,39.14
2019-04-28T01:17:55.801Z,39.14
2019-04-28T01:18:55.774Z,39.14
2019-04-28T01:19:55.767Z,39.14
2019-04-28T01:20:55.754Z,39.04
2019-04-28T01:21:55.734Z,39.04
2019-04-28T01:22:55.770Z,39.04
2019-04-28T01:23:55.726Z,39.04
2019-04-28T01:24:55.698Z,39.04
2019-04-28T01:25:55.690Z,39.04
2019-04-28T01:26:55.680Z,39.04
2019-04-28T01:27:55.696Z,39.04
2019-04-28T01:28:55.661Z,39.04
2019-04-28T01:30:06.176Z,39.04
2019-04-28T01:30:56.637Z,38.94
2019-04-28T01:31:55.623Z,38.94
2019-04-28T01:32:55.638Z,38.94
2019-04-28T01:33:55.604Z,38.94
2019-04-28T01:34:55.599Z,38.94
2019-04-28T01:35:55.574Z,38.94
2019-04-28T01:36:55.584Z,38.94
2019-04-28T01:37:55.582Z,38.94
2019-04-28T01:38:55.553Z,38.94
2019-04-28T01:39:55.536Z,38.94
2019-04-28T01:40:55.529Z,38.94
2019-04-28T01:41:55.521Z,38.94
2019-04-28T01:42:55.503Z,38.94
2019-04-28T01:43:55.530Z,38.94
2019-04-28T01:44:55.481Z,38.94
2019-04-28T01:45:55.469Z,38.94
2019-04-28T01:46:55.458Z,38.94
2019-04-28T01:47:55.475Z,38.84
2019-04-28T01:48:55.468Z,38.94
2019-04-28T01:49:55.431Z,38.84
2019-04-28T01:50:55.418Z,38.94
2019-04-28T01:51:55.406Z,38.84
2019-04-28T01:52:55.398Z,38.84
2019-04-28T01:53:55.428Z,38.84
2019-04-28T01:54:55.376Z,38.84
2019-04-28T01:55:55.361Z,38.84
2019-04-28T01:56:55.369Z,38.84
2019-04-28T01:57:55.347Z,38.84
2019-04-28T01:58:55.355Z,38.84
2019-04-28T01:59:55.334Z,38.84
2019-04-28T02:00:55.316Z,38.84
2019-04-28T02:01:55.333Z,38.84
2019-04-28T02:02:55.285Z,38.84
2019-04-28T02:03:55.318Z,38.84
2019-04-28T02:04:55.278Z,38.84
2019-04-28T02:05:55.267Z,38.84
2019-04-28T02:06:55.250Z,38.84
2019-04-28T02:07:55.236Z,38.84
2019-04-28T02:08:55.262Z,38.84
2019-04-28T02:09:55.223Z,38.84
2019-04-28T02:10:55.201Z,38.84
2019-04-28T02:11:55.205Z,38.84
2019-04-28T02:12:55.181Z,38.84
2019-04-28T02:13:55.170Z,38.84
2019-04-28T02:14:55.184Z,38.84
2019-04-28T02:15:55.152Z,38.84
2019-04-28T02:16:55.150Z,38.84
2019-04-28T02:17:55.130Z,38.84
2019-04-28T02:18:55.117Z,38.84
2019-04-28T02:19:55.130Z,38.84
2019-04-28T02:20:55.095Z,38.84
2019-04-28T02:21:55.101Z,38.84
2019-04-28T02:22:55.072Z,38.84
2019-04-28T02:23:55.062Z,38.84
2019-04-28T02:24:55.077Z,38.84
2019-04-28T02:25:55.053Z,38.74
2019-04-28T02:26:55.051Z,38.74
2019-04-28T02:27:57.115Z,38.74
2019-04-28T02:28:55.020Z,38.74
2019-04-28T02:29:55.026Z,38.74
2019-04-28T02:30:55.024Z,38.74
2019-04-28T02:31:54.978Z,38.64
2019-04-28T02:32:54.978Z,38.64
2019-04-28T02:33:54.955Z,38.64
2019-04-28T02:34:54.988Z,38.64
2019-04-28T02:35:54.949Z,38.64
2019-04-28T02:36:54.970Z,38.64
2019-04-28T02:37:54.918Z,38.64
2019-04-28T02:38:54.903Z,38.64
2019-04-28T02:39:54.900Z,38.64
2019-04-28T02:40:54.917Z,38.64
2019-04-28T02:41:54.886Z,38.64
2019-04-28T02:42:54.865Z,38.64
2019-04-28T02:43:54.848Z,38.64
2019-04-28T02:44:54.849Z,38.64
2019-04-28T02:45:54.863Z,38.64
2019-04-28T02:46:54.833Z,38.64
2019-04-28T02:47:54.809Z,38.64
2019-04-28T02:48:54.811Z,38.64
2019-04-28T02:49:54.828Z,38.64
2019-04-28T02:50:54.799Z,38.64
2019-04-28T02:51:54.774Z,38.64
2019-04-28T02:52:54.765Z,38.64
2019-04-28T02:53:54.739Z,38.64
2019-04-28T02:54:54.760Z,38.64
2019-04-28T02:55:54.759Z,38.54
2019-04-28T02:56:54.716Z,38.54
2019-04-28T02:57:54.698Z,38.54
2019-04-28T02:58:54.703Z,38.54
2019-04-28T02:59:54.683Z,38.64
2019-04-28T03:01:07.383Z,38.64
2019-04-28T03:01:55.657Z,38.54
2019-04-28T03:02:54.646Z,38.64
2019-04-28T03:03:54.637Z,38.64
2019-04-28T03:04:54.619Z,38.54
2019-04-28T03:05:54.652Z,38.54
2019-04-28T03:06:54.609Z,38.54
2019-04-28T03:07:54.589Z,38.54
2019-04-28T03:08:54.580Z,38.54
2019-04-28T03:09:54.583Z,38.54
2019-04-28T03:10:54.596Z,38.54
2019-04-28T03:11:54.547Z,38.54
2019-04-28T03:12:54.537Z,38.54
2019-04-28T03:13:54.532Z,38.64
2019-04-28T03:14:54.520Z,38.64
2019-04-28T03:15:54.527Z,38.64
2019-04-28T03:16:54.499Z,38.64
2019-04-28T03:17:54.516Z,38.64
2019-04-28T03:18:54.480Z,38.64
2019-04-28T03:19:54.471Z,38.64
2019-04-28T03:20:54.496Z,38.64
2019-04-28T03:21:54.453Z,38.64
2019-04-28T03:22:54.426Z,38.64
2019-04-28T03:23:54.420Z,38.64
2019-04-28T03:24:54.414Z,38.64
2019-04-28T03:25:54.429Z,38.64
2019-04-28T03:26:54.416Z,38.64
2019-04-28T03:27:54.379Z,38.64
2019-04-28T03:28:54.374Z,38.64
2019-04-28T03:29:54.356Z,38.64
2019-04-28T03:30:54.709Z,38.64
2019-04-28T03:32:15.860Z,38.64
2019-04-28T03:33:04.942Z,38.64
2019-04-28T03:33:56.218Z,38.64
2019-04-28T03:34:54.592Z,38.64
2019-04-28T03:35:54.489Z,38.64
2019-04-28T03:36:54.319Z,38.64
2019-04-28T03:37:54.293Z,38.64
2019-04-28T03:38:54.258Z,38.64
2019-04-28T03:39:54.246Z,38.64
2019-04-28T03:40:54.263Z,38.64
2019-04-28T03:41:54.248Z,38.64
2019-04-28T03:42:54.213Z,38.64
2019-04-28T03:43:54.215Z,38.64
2019-04-28T03:44:54.191Z,38.64
2019-04-28T03:45:54.182Z,38.54
2019-04-28T03:46:54.202Z,38.64
2019-04-28T03:47:54.166Z,38.64
2019-04-28T03:48:54.175Z,38.54
2019-04-28T03:49:54.151Z,38.64
2019-04-28T03:50:54.143Z,38.54
2019-04-28T03:51:54.154Z,38.64
2019-04-28T03:52:54.119Z,38.64
2019-04-28T03:53:54.104Z,38.54
2019-04-28T03:54:54.080Z,38.54
2019-04-28T03:55:54.084Z,38.54
2019-04-28T03:56:54.100Z,38.54
2019-04-28T03:57:54.065Z,38.54
2019-04-28T03:58:54.044Z,38.54
2019-04-28T03:59:54.031Z,38.66
2019-04-28T04:00:54.032Z,38.66
2019-04-28T04:01:59.393Z,38.54
2019-04-28T04:02:55.031Z,38.54
2019-04-28T04:03:54.005Z,38.54
2019-04-28T04:04:53.975Z,38.64
2019-04-28T04:05:53.964Z,38.66
2019-04-28T04:06:53.959Z,38.66
2019-04-28T04:07:53.967Z,38.66
2019-04-28T04:08:53.937Z,38.66
2019-04-28T04:09:53.926Z,38.66
2019-04-28T04:10:53.917Z,38.66
2019-04-28T04:11:53.905Z,38.66
2019-04-28T04:12:53.927Z,38.66
2019-04-28T04:13:53.883Z,38.66
2019-04-28T04:14:53.876Z,38.66
2019-04-28T04:15:54.779Z,38.66
2019-04-28T04:16:53.863Z,38.66
2019-04-28T04:17:53.865Z,38.66
2019-04-28T04:18:54.135Z,38.66
2019-04-28T04:19:53.821Z,38.66
2019-04-28T04:20:53.825Z,38.66
2019-04-28T04:21:53.815Z,38.66
2019-04-28T04:22:53.824Z,38.66
2019-04-28T04:23:53.778Z,38.66
2019-04-28T04:24:53.765Z,38.66
2019-04-28T04:25:53.757Z,38.66
2019-04-28T04:26:53.741Z,38.66
2019-04-28T04:27:53.764Z,38.56
2019-04-28T04:28:53.735Z,38.66
2019-04-28T04:29:53.713Z,38.64
2019-04-28T04:30:53.706Z,38.66
2019-04-28T04:32:09.328Z,38.54
2019-04-28T04:32:54.710Z,38.66
2019-04-28T04:33:53.664Z,38.66
2019-04-28T04:34:53.651Z,38.56
2019-04-28T04:35:53.641Z,38.66
2019-04-28T04:36:53.632Z,38.66
2019-04-28T04:37:53.657Z,38.56
2019-04-28T04:38:53.637Z,38.56
2019-04-28T04:39:53.605Z,38.54
2019-04-28T04:40:53.594Z,38.56
2019-04-28T04:41:53.589Z,38.56
2019-04-28T04:42:53.569Z,38.56
2019-04-28T04:43:53.650Z,38.54
2019-04-28T04:44:53.548Z,38.56
2019-04-28T04:45:53.537Z,38.56
2019-04-28T04:46:53.525Z,38.46
2019-04-28T04:47:53.518Z,38.44
2019-04-28T04:48:53.523Z,38.46
2019-04-28T04:49:53.492Z,38.44
2019-04-28T04:50:53.483Z,38.44
2019-04-28T04:51:53.469Z,38.44
2019-04-28T04:52:53.473Z,38.44
2019-04-28T04:53:53.488Z,38.44
2019-04-28T04:54:53.448Z,38.34
2019-04-28T04:55:53.446Z,38.34
2019-04-28T04:56:53.416Z,38.44
2019-04-28T04:57:53.404Z,38.34
2019-04-28T04:58:53.423Z,38.34
2019-04-28T04:59:53.400Z,38.34
2019-04-28T05:00:53.390Z,38.34
2019-04-28T05:01:53.365Z,38.34
2019-04-28T05:02:55.330Z,38.34
2019-04-28T05:03:53.388Z,38.34
2019-04-28T05:04:53.335Z,38.24
2019-04-28T05:05:53.326Z,38.34
2019-04-28T05:06:53.314Z,38.34
2019-04-28T05:07:53.315Z,38.24
2019-04-28T05:08:53.336Z,38.24
2019-04-28T05:09:53.338Z,38.24
2019-04-28T05:10:53.275Z,38.24
2019-04-28T05:11:53.265Z,38.24
2019-04-28T05:12:53.266Z,38.24
2019-04-28T05:13:53.240Z,38.24
2019-04-28T05:14:53.259Z,38.24
2019-04-28T05:15:53.209Z,38.24
2019-04-28T05:16:53.199Z,38.14
2019-04-28T05:17:53.190Z,38.24
2019-04-28T05:18:53.180Z,38.24
2019-04-28T05:19:53.208Z,38.14
2019-04-28T05:20:53.166Z,38.14
2019-04-28T05:21:53.149Z,38.14
2019-04-28T05:23:49.287Z,38.14
2019-04-28T05:24:53.001Z,38.14
2019-04-28T05:25:49.769Z,38.14
2019-04-28T05:26:49.632Z,38.14
2019-04-28T05:27:50.032Z,38.14
2019-04-28T05:28:51.549Z,38.14
2019-04-28T05:29:51.203Z,38.14
2019-04-28T05:30:50.113Z,38.14
2019-04-28T05:31:50.229Z,38.14
2019-04-28T05:32:53.635Z,38.14
2019-04-28T05:33:49.830Z,38.14
2019-04-28T05:34:52.651Z,38.04
2019-04-28T05:35:50.013Z,38.14
2019-04-28T05:36:50.372Z,38.04
2019-04-28T05:37:49.420Z,38.04
2019-04-28T05:38:49.652Z,38.04
2019-04-28T05:39:49.707Z,38.04
2019-04-28T05:40:49.725Z,38.04
2019-04-28T05:41:50.289Z,38.04
2019-04-28T05:42:49.344Z,38.04
2019-04-28T05:43:48.131Z,37.94
2019-04-28T05:44:49.643Z,37.94
2019-04-28T05:45:49.846Z,37.94
2019-04-28T05:46:48.102Z,37.94
2019-04-28T05:47:48.080Z,37.94
2019-04-28T05:48:49.451Z,37.94
2019-04-28T05:49:49.803Z,37.94
2019-04-28T05:50:49.939Z,37.94
2019-04-28T05:51:48.030Z,37.94
2019-04-28T05:52:48.013Z,37.94
2019-04-28T05:53:48.003Z,37.94
2019-04-28T05:54:49.646Z,37.94
2019-04-28T05:55:50.057Z,37.94
2019-04-28T05:56:49.550Z,37.92
2019-04-28T05:57:50.038Z,37.94
2019-04-28T05:58:47.949Z,37.94
2019-04-28T05:59:47.940Z,37.94
2019-04-28T06:00:49.785Z,37.94
2019-04-28T06:01:47.922Z,37.94
2019-04-28T06:02:56.268Z,37.94
2019-04-28T06:03:49.654Z,37.94
2019-04-28T06:04:49.386Z,37.94
2019-04-28T06:05:49.634Z,37.94
2019-04-28T06:06:49.441Z,37.94
2019-04-28T06:07:49.350Z,37.94
2019-04-28T06:08:50.839Z,37.94
2019-04-28T06:09:47.825Z,37.94
2019-04-28T06:10:49.812Z,37.94
2019-04-28T06:11:49.516Z,37.94
2019-04-28T06:12:49.493Z,37.94
2019-04-28T06:13:47.790Z,37.94
2019-04-28T06:14:47.805Z,37.94
2019-04-28T06:15:49.625Z,37.94
2019-04-28T06:16:47.773Z,37.94
2019-04-28T06:17:49.733Z,37.92
2019-04-28T06:18:49.977Z,37.94
2019-04-28T06:19:47.727Z,37.94
2019-04-28T06:20:49.669Z,37.84
2019-04-28T06:21:47.726Z,37.84
2019-04-28T06:22:47.679Z,37.82
2019-04-28T06:23:47.670Z,37.84
2019-04-28T06:24:47.660Z,37.84
2019-04-28T06:25:47.655Z,37.84
2019-04-28T06:26:47.674Z,37.84
2019-04-28T06:27:47.639Z,37.92
2019-04-28T06:28:47.614Z,37.82
2019-04-28T06:29:47.603Z,37.92
2019-04-28T06:30:47.630Z,37.94
2019-04-28T06:31:47.620Z,37.92
2019-04-28T06:32:47.573Z,38.02
2019-04-28T06:33:47.560Z,37.92
2019-04-28T06:34:47.571Z,38.02
2019-04-28T06:35:47.566Z,38.02
2019-04-28T06:36:47.528Z,38.02
2019-04-28T06:37:47.522Z,38.12
2019-04-28T06:38:47.506Z,38.12
2019-04-28T06:39:47.511Z,38.12
2019-04-28T06:40:47.495Z,38.12
2019-04-28T06:41:47.495Z,38.12
2019-04-28T06:42:47.460Z,38.22
2019-04-28T06:43:47.450Z,38.22
2019-04-28T06:44:47.439Z,38.22
2019-04-28T06:45:47.447Z,38.22
2019-04-28T06:46:47.446Z,38.22
2019-04-28T06:47:47.421Z,38.22
2019-04-28T06:48:47.403Z,38.22
2019-04-28T06:49:47.446Z,38.12
2019-04-28T06:50:47.382Z,38.22
2019-04-28T06:51:47.392Z,38.22
2019-04-28T06:52:47.415Z,38.22
2019-04-28T06:53:47.352Z,38.22
2019-04-28T06:54:47.335Z,38.22
2019-04-28T06:55:47.315Z,38.22
2019-04-28T06:56:47.333Z,38.22
2019-04-28T06:57:47.300Z,38.22
2019-04-28T06:58:58.488Z,38.22
2019-04-28T06:59:48.281Z,38.22
2019-04-28T07:00:47.274Z,38.22
2019-04-28T07:01:47.291Z,38.12
2019-04-28T07:02:47.262Z,38.22
2019-04-28T07:03:47.243Z,38.12
2019-04-28T07:04:47.237Z,38.02
2019-04-28T07:05:47.214Z,38.02
2019-04-28T07:06:47.220Z,37.92
2019-04-28T07:07:47.194Z,37.90
2019-04-28T07:08:47.179Z,37.81
2019-04-28T07:09:47.171Z,37.70
2019-04-28T07:10:47.168Z,37.70
2019-04-28T07:11:47.167Z,37.60
2019-04-28T07:12:47.139Z,37.60
2019-04-28T07:13:47.133Z,37.60
2019-04-28T07:14:47.120Z,37.60
2019-04-28T07:15:47.096Z,37.70
2019-04-28T07:16:47.136Z,37.81
2019-04-28T07:17:47.092Z,37.81
2019-04-28T07:18:47.073Z,37.81
2019-04-28T07:19:47.058Z,37.70
2019-04-28T07:20:47.056Z,37.60
2019-04-28T07:21:47.046Z,37.60
2019-04-28T07:22:47.066Z,37.60
2019-04-28T07:23:47.009Z,37.51
2019-04-28T07:24:47.005Z,37.38
2019-04-28T07:25:46.998Z,37.38
2019-04-28T07:26:47.005Z,37.29
2019-04-28T07:27:47.007Z,37.29
2019-04-28T07:28:46.957Z,37.38
2019-04-28T07:29:46.961Z,37.40
2019-04-28T07:30:46.942Z,37.38
2019-04-28T07:31:46.926Z,37.40
2019-04-28T07:32:46.942Z,37.29
2019-04-28T07:33:46.920Z,37.19
2019-04-28T07:34:46.900Z,37.19
2019-04-28T07:35:46.893Z,37.08
2019-04-28T07:36:46.877Z,37.08
2019-04-28T07:37:46.904Z,36.99
2019-04-28T07:38:46.856Z,37.08
2019-04-28T07:39:46.840Z,37.08
2019-04-28T07:40:46.821Z,36.99
2019-04-28T07:41:46.812Z,36.99
2019-04-28T07:42:46.840Z,36.99
2019-04-28T07:43:46.795Z,36.99
2019-04-28T07:44:46.785Z,36.89
2019-04-28T07:45:46.785Z,36.89
2019-04-28T07:46:46.759Z,36.77
2019-04-28T07:47:46.780Z,36.67
2019-04-28T07:48:46.759Z,36.67
2019-04-28T07:49:46.737Z,36.67
2019-04-28T07:50:46.712Z,36.57
2019-04-28T07:51:46.706Z,36.57
2019-04-28T07:52:46.698Z,36.57
2019-04-28T07:53:46.731Z,36.57
2019-04-28T07:54:46.735Z,36.57
2019-04-28T07:55:46.665Z,36.47
2019-04-28T07:56:46.663Z,36.47
2019-04-28T07:57:46.647Z,36.57
2019-04-28T07:58:46.660Z,36.57
2019-04-28T07:59:46.613Z,36.69
2019-04-28T08:00:48.798Z,36.79
2019-04-28T08:01:46.599Z,36.89
2019-04-28T08:02:46.585Z,36.89
2019-04-28T08:03:49.684Z,36.89
2019-04-28T08:04:46.572Z,36.99
2019-04-28T08:05:46.553Z,36.99
2019-04-28T08:06:46.555Z,36.99
2019-04-28T08:07:46.544Z,36.99
2019-04-28T08:08:46.541Z,36.99
2019-04-28T08:09:46.512Z,36.99
2019-04-28T08:10:46.500Z,36.89
2019-04-28T08:11:46.530Z,36.89
2019-04-28T08:12:49.133Z,36.79
2019-04-28T08:13:46.513Z,36.79
2019-04-28T08:14:46.475Z,36.69
2019-04-28T08:15:46.465Z,36.57
2019-04-28T08:16:46.432Z,36.47
2019-04-28T08:17:46.424Z,36.37
2019-04-28T08:18:46.418Z,36.37
2019-04-28T08:19:46.422Z,36.37
2019-04-28T08:20:46.410Z,36.37
2019-04-28T08:21:46.382Z,36.27
2019-04-28T08:22:46.360Z,36.37
2019-04-28T08:23:47.520Z,36.27
2019-04-28T08:24:46.371Z,36.27
2019-04-28T08:25:46.332Z,36.37
2019-04-28T08:26:46.325Z,36.37
2019-04-28T08:27:46.313Z,36.27
2019-04-28T08:28:46.336Z,36.07
2019-04-28T08:29:57.960Z,35.96
2019-04-28T08:30:47.275Z,35.75
2019-04-28T08:31:46.262Z,35.66
2019-04-28T08:32:46.267Z,35.66
2019-04-28T08:33:46.249Z,35.56
2019-04-28T08:34:46.278Z,35.54
2019-04-28T08:35:46.232Z,35.46
2019-04-28T08:36:46.221Z,35.56
2019-04-28T08:37:46.208Z,35.56
2019-04-28T08:38:46.196Z,35.75
2019-04-28T08:39:46.218Z,35.96
2019-04-28T08:40:46.176Z,36.64
2019-04-28T08:41:46.168Z,36.74
2019-04-28T08:42:46.166Z,36.34
2019-04-28T08:43:46.141Z,36.04
2019-04-28T08:44:46.160Z,36.34
2019-04-28T08:45:46.116Z,36.34
2019-04-28T08:46:46.114Z,36.54
2019-04-28T08:47:46.103Z,36.64
2019-04-28T08:48:46.104Z,36.54
2019-04-28T08:49:46.099Z,36.44
2019-04-28T08:50:46.060Z,36.14
2019-04-28T08:51:46.061Z,36.04
2019-04-28T08:52:46.051Z,36.04
2019-04-28T08:53:46.029Z,35.92
2019-04-28T08:54:46.061Z,36.02
2019-04-28T08:55:46.021Z,35.92
2019-04-28T08:56:46.000Z,35.92
2019-04-28T08:57:45.997Z,35.92
2019-04-28T08:58:45.979Z,36.12
2019-04-28T08:59:45.966Z,36.02
2019-04-28T09:00:45.978Z,36.02
2019-04-28T09:01:45.963Z,36.12
2019-04-28T09:02:45.940Z,36.22
2019-04-28T09:03:45.922Z,36.22
2019-04-28T09:04:45.943Z,36.44
2019-04-28T09:05:45.937Z,36.44
2019-04-28T09:06:45.901Z,36.54
2019-04-28T09:07:45.880Z,36.34
2019-04-28T09:08:45.880Z,36.32
2019-04-28T09:09:45.912Z,36.32
2019-04-28T09:10:45.879Z,36.12
2019-04-28T09:11:45.834Z,36.02
2019-04-28T09:12:45.831Z,36.02
2019-04-28T09:13:45.810Z,35.92
2019-04-28T09:14:45.803Z,35.82
2019-04-28T09:15:45.835Z,35.82
2019-04-28T09:16:45.794Z,35.72
2019-04-28T09:17:45.784Z,35.72
2019-04-28T09:18:45.776Z,35.72
2019-04-28T09:19:45.757Z,35.72
2019-04-28T09:20:45.777Z,35.63
2019-04-28T09:21:45.735Z,35.63
2019-04-28T09:22:45.723Z,35.63
2019-04-28T09:23:45.710Z,35.63
2019-04-28T09:24:45.703Z,35.72
2019-04-28T09:25:45.680Z,35.72
2019-04-28T09:26:45.700Z,35.72
2019-04-28T09:27:45.667Z,35.63
2019-04-28T09:28:45.657Z,35.52
2019-04-28T09:29:45.663Z,35.52
2019-04-28T09:30:45.641Z,35.52
2019-04-28T09:31:45.639Z,35.63
2019-04-28T09:32:45.611Z,35.52
2019-04-28T09:33:45.601Z,35.42
2019-04-28T09:34:45.595Z,35.33
2019-04-28T09:35:45.576Z,35.33
2019-04-28T09:36:45.601Z,35.22
2019-04-28T09:37:45.566Z,35.13
2019-04-28T09:38:45.569Z,35.03
2019-04-28T09:39:45.550Z,34.92
2019-04-28T09:40:45.531Z,34.92
2019-04-28T09:41:45.541Z,34.81
2019-04-28T09:42:45.512Z,34.71
2019-04-28T09:43:45.498Z,34.61
2019-04-28T09:44:45.487Z,34.61
2019-04-28T09:45:45.479Z,34.61
2019-04-28T09:46:45.508Z,34.61
2019-04-28T09:47:45.455Z,34.61
2019-04-28T09:48:45.444Z,34.71
2019-04-28T09:49:45.443Z,34.71
2019-04-28T09:50:45.414Z,34.71
2019-04-28T09:51:45.453Z,34.71
2019-04-28T09:52:45.395Z,34.71
2019-04-28T09:53:45.389Z,34.71
2019-04-28T09:54:45.469Z,34.71
2019-04-28T09:55:45.368Z,34.61
2019-04-28T09:56:56.075Z,34.61
2019-04-28T09:57:46.377Z,34.61
2019-04-28T09:58:45.371Z,34.61
2019-04-28T09:59:45.323Z,34.61
2019-04-28T10:00:45.317Z,34.61
2019-04-28T10:01:45.346Z,34.71
2019-04-28T10:02:45.316Z,34.81
2019-04-28T10:03:45.284Z,34.81
2019-04-28T10:04:45.289Z,34.91
2019-04-28T10:05:45.265Z,35.01
2019-04-28T10:06:45.297Z,35.03
2019-04-28T10:07:45.270Z,35.03
2019-04-28T10:08:45.238Z,35.13
2019-04-28T10:09:45.233Z,35.13
2019-04-28T10:10:45.227Z,35.22
2019-04-28T10:11:45.194Z,35.13
2019-04-28T10:12:45.212Z,35.22
2019-04-28T10:13:45.180Z,35.22
2019-04-28T10:14:45.179Z,35.22
2019-04-28T10:15:45.157Z,35.22
2019-04-28T10:16:45.160Z,35.33
2019-04-28T10:17:45.169Z,35.33
2019-04-28T10:18:45.132Z,35.33
2019-04-28T10:19:45.117Z,35.33
2019-04-28T10:20:45.128Z,35.33
2019-04-28T10:21:45.093Z,35.33
2019-04-28T10:22:45.132Z,35.22
2019-04-28T10:23:45.067Z,35.22
2019-04-28T10:24:45.070Z,35.22
2019-04-28T10:25:45.046Z,35.13
2019-04-28T10:26:45.038Z,35.13
2019-04-28T10:27:45.028Z,35.03
2019-04-28T10:28:45.044Z,35.03
2019-04-28T10:29:45.006Z,34.91
2019-04-28T10:30:45.019Z,34.91
2019-04-28T10:31:44.989Z,34.91
2019-04-28T10:32:45.004Z,35.01
2019-04-28T10:33:44.999Z,35.13
2019-04-28T10:34:54.650Z,35.22
2019-04-28T10:35:45.961Z,35.33
2019-04-28T10:36:44.929Z,35.42
2019-04-28T10:37:45.638Z,35.63
2019-04-28T10:38:44.934Z,35.63
2019-04-28T10:39:44.916Z,35.63
2019-04-28T10:40:44.886Z,35.72
2019-04-28T10:41:44.892Z,35.94
2019-04-28T10:42:44.871Z,35.94
2019-04-28T10:43:44.894Z,36.04
2019-04-28T10:44:44.845Z,36.14
2019-04-28T10:45:44.844Z,36.24
2019-04-28T10:46:44.831Z,36.34
2019-04-28T10:47:44.811Z,36.34
2019-04-28T10:48:44.857Z,36.44
2019-04-28T10:49:44.811Z,36.44
2019-04-28T10:50:44.775Z,36.44
2019-04-28T10:51:44.767Z,36.44
2019-04-28T10:52:44.755Z,36.54
2019-04-28T10:53:44.790Z,36.54
2019-04-28T10:54:44.739Z,36.54
2019-04-28T10:55:44.737Z,36.54
2019-04-28T10:56:44.729Z,36.64
2019-04-28T10:57:44.700Z,36.64
2019-04-28T10:58:44.730Z,36.74
2019-04-28T10:59:44.691Z,36.83
2019-04-28T11:00:44.688Z,36.83
2019-04-28T11:01:44.665Z,36.83
2019-04-28T11:02:44.656Z,36.83
2019-04-28T11:03:44.666Z,36.93
2019-04-28T11:04:44.659Z,36.93
2019-04-28T11:05:44.630Z,37.04
2019-04-28T11:06:44.614Z,37.04
2019-04-28T11:07:44.605Z,37.13
2019-04-28T11:08:44.596Z,37.13
2019-04-28T11:09:44.601Z,37.23
2019-04-28T11:10:44.582Z,37.34
2019-04-28T11:11:44.551Z,37.43
2019-04-28T11:12:44.550Z,37.43
2019-04-28T11:13:44.573Z,37.43
2019-04-28T11:14:44.529Z,37.53
2019-04-28T11:15:44.524Z,37.53
2019-04-28T11:16:44.505Z,37.53
2019-04-28T11:17:44.493Z,37.53
2019-04-28T11:18:44.483Z,37.63
2019-04-28T11:19:44.483Z,37.63
2019-04-28T11:20:44.461Z,37.73
2019-04-28T11:21:44.471Z,37.73
2019-04-28T11:22:44.433Z,37.73
2019-04-28T11:23:50.721Z,37.83
2019-04-28T11:24:44.440Z,37.93
2019-04-28T11:25:44.410Z,37.73
2019-04-28T11:26:44.397Z,37.73
2019-04-28T11:27:44.386Z,37.71
2019-04-28T11:28:44.368Z,37.51
2019-04-28T11:29:44.390Z,37.41
2019-04-28T11:30:44.368Z,37.41
2019-04-28T11:31:44.349Z,37.32
2019-04-28T11:32:44.351Z,37.30
2019-04-28T11:33:44.307Z,37.20
2019-04-28T11:34:44.331Z,37.00
2019-04-28T11:35:44.291Z,36.78
2019-04-28T11:36:44.302Z,36.68
2019-04-28T11:37:44.272Z,36.58
2019-04-28T11:38:44.269Z,36.58
2019-04-28T11:39:44.293Z,36.49
2019-04-28T11:40:44.246Z,36.58
2019-04-28T11:41:44.239Z,36.58
2019-04-28T11:42:44.214Z,36.68
2019-04-28T11:43:44.228Z,36.68
2019-04-28T11:44:44.233Z,36.58
2019-04-28T11:45:44.217Z,36.68
2019-04-28T11:46:44.181Z,36.58
2019-04-28T11:47:44.180Z,36.58
2019-04-28T11:48:44.161Z,36.49
2019-04-28T11:49:44.157Z,36.49
2019-04-28T11:50:44.162Z,36.58
2019-04-28T11:51:44.130Z,36.68
2019-04-28T11:52:44.122Z,36.68
2019-04-28T11:53:44.101Z,36.68
2019-04-28T11:54:44.101Z,36.47
2019-04-28T11:55:44.119Z,36.47
2019-04-28T11:56:44.072Z,36.47
2019-04-28T11:57:44.061Z,36.27
2019-04-28T11:58:44.062Z,36.17
2019-04-28T11:59:44.040Z,36.05
2019-04-28T12:00:44.069Z,36.05
2019-04-28T12:01:44.031Z,35.95
2019-04-28T12:02:44.008Z,36.15
2019-04-28T12:03:44.008Z,36.17
2019-04-28T12:04:44.007Z,36.27
2019-04-28T12:05:44.020Z,36.27
2019-04-28T12:06:43.970Z,36.27
2019-04-28T12:07:43.969Z,36.27
2019-04-28T12:08:43.940Z,36.27
2019-04-28T12:09:43.939Z,36.27
2019-04-28T12:10:43.946Z,36.27
2019-04-28T12:11:43.927Z,36.17
2019-04-28T12:12:43.910Z,36.07
2019-04-28T12:13:43.887Z,36.15
2019-04-28T12:14:43.878Z,36.05
2019-04-28T12:15:43.898Z,36.05
2019-04-28T12:16:43.895Z,35.95
2019-04-28T12:17:43.855Z,36.15
2019-04-28T12:18:43.848Z,35.94
2019-04-28T12:19:43.832Z,35.95
2019-04-28T12:20:43.849Z,35.95
2019-04-28T12:21:43.814Z,36.05
2019-04-28T12:22:43.799Z,36.05
2019-04-28T12:23:43.789Z,36.25
2019-04-28T12:24:43.769Z,36.15
2019-04-28T12:25:43.770Z,36.25
2019-04-28T12:26:43.788Z,36.15
2019-04-28T12:27:43.751Z,36.35
2019-04-28T12:28:43.752Z,36.25
2019-04-28T12:29:43.715Z,36.15
2019-04-28T12:30:43.721Z,36.25
2019-04-28T12:31:43.724Z,36.25
2019-04-28T12:32:43.689Z,36.25
2019-04-28T12:33:43.663Z,36.45
2019-04-28T12:34:43.669Z,36.15
2019-04-28T12:35:47.960Z,36.25
2019-04-28T12:36:43.675Z,36.35
2019-04-28T12:37:43.635Z,36.15
2019-04-28T12:38:43.624Z,36.05
2019-04-28T12:39:43.618Z,36.25
2019-04-28T12:40:43.595Z,36.25
2019-04-28T12:41:43.609Z,36.35
2019-04-28T12:42:43.581Z,36.47
2019-04-28T12:43:43.574Z,36.47
2019-04-28T12:44:43.593Z,36.45
2019-04-28T12:45:43.552Z,36.45
2019-04-28T12:46:43.535Z,36.45
2019-04-28T12:47:43.544Z,36.45
2019-04-28T12:48:43.510Z,36.55
2019-04-28T12:49:43.507Z,36.45
2019-04-28T12:50:43.489Z,36.45
2019-04-28T12:51:43.522Z,36.35
2019-04-28T12:52:43.513Z,36.55
2019-04-28T12:53:43.458Z,36.55